Airfield :
LOGIN :

Register | Disclaimer

   EN    FR    IT 

 










Legend :    VFR   Marginal VFR   IFR   Intensive IFR   Very Intensive IFR
Visi :
Ceiling :
>= 8 km
>= 3000ft
5 to 8 km
1000 to 3000 ft
1500m to 5 km
500 to 1000 ft
800 to 1500m
200 to 500 ft
< 800m
< 200 ft
Symbols :   Thunderstorms  Fog  Heavy snow  Heavy precipitations  Wind > 20 kt
SIGMETs :     Misc.  Thunderstorms  Icing  Turbulence  Mountain Waves  Volcanic Ashes







- Airport Elevation : 44 ft
- IATA code : SOU
- Download approach charts


EGHI - Southampton

CURRENT METAR :
  • 200820Z 25011KT 210V290 9999 FEW020 BKN027 11/08 Q1006

EXPIRED METARs :
  • 200750Z 27011KT 230V300 9999 FEW020 BKN027 11/08 Q1005
  • 200720Z 26011KT 230V290 9999 FEW018 BKN025 11/08 Q1005
  • 200650Z 26012KT 220V300 9999 FEW018 BKN025 11/08 Q1003
  • 200620Z 26011KT 230V300 9999 FEW020 BKN026 11/08 Q1002
  • 200550Z 26013KT 230V290 9999 FEW020 BKN026 12/08 Q1002

TAF TAF EGHI
Valid from the 20 at 09:00 until the 20 at 18:00 UTC


200802Z 2009/2018 26015G25KT 9999 SCT020
BECMG 2009/2011 25012KT
BECMG 2014/2017 19010KT
ATIS : +44 23 8062 7103
No reported NOTAMs for that airfield.
2 SIGMETs reported for the London FIR (EGTT) :
 
Severe turbulence
EGTT SIGMET 03 VALID 200700/201100 EGRR
EGTT LONDON FIR SEV TURB OBS WI N5130 E00200 - N5107 E00200 - N5100 E00128 - N5040 E00128 - N5012 E00017 - N5440 W00420 - N5438 W00126 - N5139 E00207 - N5130 E00200 FL250/370 MOV E 20KT NC=
Severe turbulence
EGTT SIGMET 02 VALID 200730/201130 EGRR
EGTT LONDON FIR SEV TURB FCST S OF LINE N4937 W00800 - N5125 E00200 SFC/FL060 MOV ESE 15KT NC=



MET'MAP, your aeronautical weather chart ! - Copyright ORBIFLY December 2007 - Disclaimer

ORBIFLY MET'MAP TEAM :

Programming & Development : Alexandra Zaïnal
Concept & Development : Baudouin d'Aumeries
Co-Development & Prog : Marc-Olivier Méhu
Technical & hardware support : Manuel Goepfert

Contact : metmap@orbifly.com




SOURCES & CREDITS :

   NOAA